KBQK/BQK METAR and TAF weather

Enter ICAO airport designator
Station Type Date Time Source
KBQK METAR 2018/12/12 17:35 UTC NOAA

KBQK 121735Z AUTO 00000KT 10SM CLR 14/01 A3027 RMK AO2


Station Type Date Time Source
KBQK Decoded METAR 2018/12/12 17:35 UTC NOAA

Brunswick / Glynco, GA, United States (KBQK) 31-15N 081-28W
Dec 12, 2018 - 12:35 PM EST / 2018.12.12 1735 UTC
Wind: Calm:0
Visibility: 10 mile(s):0
Sky conditions: clear
Temperature: 57 F (14 C)
Dew Point: 33 F (1 C)
Relative Humidity: 41%
Pressure (altimeter): 30.27 in. Hg (1025 hPa)
ob: KBQK 121735Z AUTO 00000KT 10SM CLR 14/01 A3027 RMK AO2
cycle: 17

Station Type Date Time Source
KBQK TAF UTC NOAA

Error!


Example: see airport list